European Seaway — MPDG3 — position and weather

sailwx.info

Track history (hours):
 
Tides and Currents Weather Stations Pressure Air Temp Water Temp Dewpoint Dewpoint Depression Visibility Wind Speed Wind Dir Waves Ship Positions

European Seaway

Operator: P & O Ferries

Last reported at 2016-Aug-29 22:33 UTC. Time now 2016-Aug-29 23:29 UTC.
Position N 50°58' E 001°52'.

Length 179 m; draft 6.1 m.

Type: Passenger vessel. MMSI: 232001040.

Date/timePositionNaut miles runAvg speedWind from/ knotsBaromVisibWave heightAir tempDewpointWater temp
2016-Aug-29 22:33N 50°58' E 001°52'0 0.0
2016-Aug-29 21:33N 50°58' E 001°52'0 0.0
2016-Aug-29 20:33N 50°58' E 001°52'0 0.0
2016-Aug-29 19:33N 50°58' E 001°52'1 0.9
2016-Aug-29 18:34N 50°58' E 001°50'1514.7
2016-Aug-29 17:34N 51°04' E 001°28'6 6.5
2016-Aug-29 16:33N 51°07' E 001°20'4 4.5
2016-Aug-29 15:34N 51°05' E 001°26'1616.1
2016-Aug-29 14:34N 50°58' E 001°49'1 1.1
2016-Aug-29 13:33N 50°58' E 001°51'1313.4
2016-Aug-29 12:33N 51°02' E 001°30'9 8.6
2016-Aug-29 11:33N 51°07' E 001°20'5 4.8
2016-Aug-29 10:33N 51°07' E 001°28'1616.3
2016-Aug-29 09:34N 50°58' E 001°50'1 1.1
2016-Aug-29 08:31N 50°58' E 001°52'0 0.0
2016-Aug-29 07:25N 50°58' E 001°52'0 0.0
2016-Aug-29 06:19N 50°58' E 001°52'0 0.0
2016-Aug-29 05:31N 50°58' E 001°52'0 0.0
2016-Aug-29 04:33N 50°58' E 001°52'0 0.0
2016-Aug-29 03:33N 50°58' E 001°52'0 0.0
2016-Aug-29 02:33N 50°58' E 001°52'0 0.0
2016-Aug-29 01:33N 50°58' E 001°52'0 0.0
2016-Aug-29 00:33N 50°58' E 001°52'0 0.0
2016-Aug-28 23:33N 50°58' E 001°52'0 0.0
2016-Aug-28 22:33N 50°58' E 001°52'0 0.0
2016-Aug-28 21:33N 50°58' E 001°52'0 0.0
2016-Aug-28 20:33N 50°58' E 001°52'0 0.0
2016-Aug-28 19:33N 50°58' E 001°52'1514.5
2016-Aug-28 18:33N 51°02' E 001°30'8 7.9
2016-Aug-28 17:33N 51°07' E 001°20'0 0.1
2016-Aug-28 16:33N 51°07' E 001°20'1010.2
2016-Aug-28 15:33N 51°03' E 001°35'1211.5
2016-Aug-28 14:32N 50°58' E 001°52'0 0.2
2016-Aug-28 13:29N 50°58' E 001°52'0 0.0
2016-Aug-28 12:32N 50°58' E 001°52'0 0.0
2016-Aug-28 11:33N 50°58' E 001°52'0 0.0
2016-Aug-28 10:33N 50°58' E 001°52'0 0.0
2016-Aug-28 09:33N 50°58' E 001°52'0 0.0
2016-Aug-28 08:33N 50°58' E 001°52'0 0.0
2016-Aug-28 07:33N 50°58' E 001°52'0 0.0
2016-Aug-28 06:33N 50°58' E 001°52'0 0.0
2016-Aug-28 05:33N 50°58' E 001°52'0 0.0
2016-Aug-28 04:33N 50°58' E 001°52'0 0.0
2016-Aug-28 03:33N 50°58' E 001°52'0 0.0
2016-Aug-28 02:33N 50°58' E 001°52'0 0.0
2016-Aug-28 01:34N 50°58' E 001°52'0 0.0
2016-Aug-28 00:33N 50°58' E 001°52'0 0.0
2016-Aug-27 23:34N 50°58' E 001°52'0 0.0
2016-Aug-27 22:33N 50°58' E 001°52'0 0.0
2016-Aug-27 21:33N 50°58' E 001°52'0 0.0
2016-Aug-27 20:34N 50°58' E 001°52'0 0.0
2016-Aug-27 19:33N 50°58' E 001°52'0 0.0
2016-Aug-27 18:33N 50°58' E 001°52'1010.2
2016-Aug-27 17:33N 51°00' E 001°36'1212.3
2016-Aug-27 16:33N 51°07' E 001°20'9 9.1
2016-Aug-27 15:33N 51°03' E 001°33'1212.5
2016-Aug-27 14:34N 50°58' E 001°51'1 1.3
2016-Aug-27 13:33N 50°58' E 001°49'1616.5
2016-Aug-27 12:33N 51°05' E 001°25'4 3.8
2016-Aug-27 11:33N 51°07' E 001°20'1 1.2
2016-Aug-27 10:34N 51°07' E 001°22'1817.9
2016-Aug-27 09:33N 50°58' E 001°46'3 2.8
2016-Aug-27 08:33N 50°58' E 001°51'1313.4
2016-Aug-27 07:33N 51°03' E 001°31'8 7.3
2016-Aug-27 06:25N 51°07' E 001°20'2010.6
2016-Aug-27 04:33N 50°58' E 001°48'3 2.5
2016-Aug-27 03:33N 50°58' E 001°52'0 0.0
2016-Aug-27 02:33N 50°58' E 001°52'0 0.0
2016-Aug-27 01:33N 50°58' E 001°52'0 0.0
2016-Aug-27 00:33N 50°58' E 001°52'0 0.0
2016-Aug-26 23:33N 50°58' E 001°52'0 0.0
2016-Aug-26 22:33N 50°58' E 001°52'0 0.0
2016-Aug-26 21:33N 50°58' E 001°52'0 0.0
2016-Aug-26 20:33N 50°58' E 001°52'0 0.0
2016-Aug-26 19:33N 50°58' E 001°52'1 1.4
2016-Aug-26 18:33N 50°58' E 001°50'1717.0
2016-Aug-26 17:33N 51°05' E 001°25'4 3.8
2016-Aug-26 16:33N 51°07' E 001°20'9 8.6
2016-Aug-26 15:34N 51°05' E 001°33'1313.2
2016-Aug-26 14:33N 50°58' E 001°51'1 0.8
2016-Aug-26 13:33N 50°58' E 001°50'1515.3
2016-Aug-26 12:33N 51°04' E 001°27'6 5.7
2016-Aug-26 11:32N 51°07' E 001°20'3 2.7
2016-Aug-26 10:34N 51°07' E 001°24'1716.6
2016-Aug-26 09:33N 50°58' E 001°47'3 2.7
2016-Aug-26 08:33N 50°58' E 001°51'1312.6
2016-Aug-26 07:34N 51°02' E 001°32'9 9.3
2016-Aug-26 06:33N 51°07' E 001°20'19 9.5
2016-Aug-26 04:34N 50°58' E 001°46'4 3.5
2016-Aug-26 03:33N 50°58' E 001°52'0 0.0
2016-Aug-26 02:33N 50°58' E 001°52'0 0.0
2016-Aug-26 01:33N 50°58' E 001°52'0 0.0
2016-Aug-26 00:33N 50°58' E 001°52'0 0.0
2016-Aug-25 23:34N 50°58' E 001°52'0 0.0
2016-Aug-25 22:33N 50°58' E 001°52'0 0.0
2016-Aug-25 21:33N 50°58' E 001°52'0 0.0
2016-Aug-25 20:33N 50°58' E 001°52'0 0.0
2016-Aug-25 19:33N 50°58' E 001°52'0 0.0
2016-Aug-25 18:34N 50°58' E 001°52'1312.9
2016-Aug-25 17:34N 51°03' E 001°33'9 9.1
2016-Aug-25 16:33N 51°07' E 001°20'6 6.1
2016-Aug-25 15:33N 51°06' E 001°29'1515.4
2016-Aug-25 14:34N 50°58' E 001°51'0 0.2
2016-Aug-25 13:33N 50°58' E 001°51'1313.1
2016-Aug-25 12:34N 51°02' E 001°31'9 8.8
2016-Aug-25 11:33N 51°07' E 001°20'2 2.1
2016-Aug-25 10:33N 51°07' E 001°23'1717.3
2016-Aug-25 09:33N 50°58' E 001°47'2 2.4
2016-Aug-25 08:33N 50°58' E 001°51'1414.3
2016-Aug-25 07:34N 51°02' E 001°29'8 7.9
2016-Aug-25 06:33N 51°07' E 001°20'19 9.5
2016-Aug-25 04:33N 50°58' E 001°47'3 3.2
2016-Aug-25 03:33N 50°58' E 001°52'0 0.0
2016-Aug-25 02:34N 50°58' E 001°52'0 0.0
2016-Aug-25 01:33N 50°58' E 001°52'0 0.0
2016-Aug-25 00:33N 50°58' E 001°52'0 0.0
2016-Aug-24 23:33N 50°58' E 001°52'0 0.0
2016-Aug-24 22:33N 50°58' E 001°52'0 0.0
2016-Aug-24 21:33N 50°58' E 001°52'0 0.0
2016-Aug-24 20:33N 50°58' E 001°52'0 0.0
2016-Aug-24 19:33N 50°58' E 001°52'2 1.9
2016-Aug-24 18:33N 50°58' E 001°49'1615.8
2016-Aug-24 17:33N 51°05' E 001°26'4 4.3
2016-Aug-24 16:31N 51°07' E 001°20'8 8.6
2016-Aug-24 15:34N 51°05' E 001°33'1413.5
2016-Aug-24 14:33N 50°58' E 001°51'0 0.0
2016-Aug-24 13:33N 50°58' E 001°51'1515.5
2016-Aug-24 12:34N 51°04' E 001°28'6 6.3
2016-Aug-24 11:33N 51°07' E 001°20'0 0.1
2016-Aug-24 10:33N 51°07' E 001°20'1717.5
2016-Aug-24 09:34N 50°59' E 001°44'4 4.3
2016-Aug-24 08:33N 50°58' E 001°51'1110.9
2016-Aug-24 07:33N 51°00' E 001°34'1111.3
2016-Aug-24 06:33N 51°07' E 001°20'20 9.8
2016-Aug-24 04:33N 50°58' E 001°48'3 2.6
2016-Aug-24 03:34N 50°58' E 001°52'0 0.0
2016-Aug-24 02:33N 50°58' E 001°52'0 0.0
2016-Aug-24 01:33N 50°58' E 001°52'0 0.0
2016-Aug-24 00:33N 50°58' E 001°52'0 0.0
2016-Aug-23 23:33N 50°58' E 001°52'0 0.0
2016-Aug-23 22:34N 50°58' E 001°52'0 0.0
2016-Aug-23 21:33N 50°58' E 001°52'0 0.0
2016-Aug-23 20:34N 50°58' E 001°52'0 0.0
2016-Aug-23 19:33N 50°58' E 001°52'0 0.0
2016-Aug-23 18:33N 50°58' E 001°52'1313.3
2016-Aug-23 17:33N 51°02' E 001°32'9 8.8
2016-Aug-23 16:33N 51°07' E 001°20'6 6.1
2016-Aug-23 15:33N 51°06' E 001°30'1515.5
2016-Aug-23 14:34N 50°58' E 001°51'0 0.2
2016-Aug-23 13:33N 50°58' E 001°51'1010.4
2016-Aug-23 12:33N 51°01' E 001°35'1211.5
2016-Aug-23 11:33N 51°07' E 001°20'1 0.8
2016-Aug-23 10:33N 51°07' E 001°21'1919.2
2016-Aug-23 09:34N 50°58' E 001°48'2 1.9
2016-Aug-23 08:33N 50°58' E 001°51'1110.6
2016-Aug-23 07:34N 51°01' E 001°35'1111.2
2016-Aug-23 06:33N 51°07' E 001°20'4 3.6
2016-Aug-23 05:34N 51°06' E 001°26'1616.4
2016-Aug-23 04:34N 50°58' E 001°48'2 2.1
2016-Aug-23 03:33N 50°58' E 001°52'0 0.0
2016-Aug-23 02:34N 50°58' E 001°52'0 0.0
2016-Aug-23 01:34N 50°58' E 001°52'0 0.0
2016-Aug-23 00:33N 50°58' E 001°52'0 0.0
2016-Aug-22 23:34N 50°58' E 001°52'0 0.0
2016-Aug-22 22:34N 50°58' E 001°52'0 0.0
2016-Aug-22 21:34N 50°58' E 001°52'0 0.0
2016-Aug-22 20:34N 50°58' E 001°52'0 0.0
2016-Aug-22 19:34N 50°58' E 001°52'0 0.0
2016-Aug-22 18:34N 50°58' E 001°52'1413.9
2016-Aug-22 17:33N 51°02' E 001°30'8 8.3
2016-Aug-22 16:33N 51°07' E 001°20'7 7.3
2016-Aug-22 15:33N 51°05' E 001°31'1414.2
2016-Aug-22 14:33N 50°58' E 001°51'0 0.0
2016-Aug-22 13:34N 50°58' E 001°51'1514.8
2016-Aug-22 12:34N 51°03' E 001°29'7 6.9
2016-Aug-22 11:33N 51°07' E 001°20'2 1.7
2016-Aug-22 10:33N 51°07' E 001°23'1818.3
2016-Aug-22 09:34N 50°58' E 001°48'2 2.3
2016-Aug-22 08:34N 50°58' E 001°52'0 0.0
2016-Aug-22 07:34N 50°58' E 001°52'0 0.0
2016-Aug-22 06:34N 50°58' E 001°52'0 0.0
2016-Aug-22 05:34N 50°58' E 001°52'0 0.0
2016-Aug-22 04:34N 50°58' E 001°52'0 0.0
2016-Aug-22 03:34N 50°58' E 001°52'0 0.0
2016-Aug-22 02:34N 50°58' E 001°52'0 0.0
2016-Aug-22 01:33N 50°58' E 001°52'0 0.0
2016-Aug-22 00:34N 50°58' E 001°52'0 0.0
2016-Aug-21 23:34N 50°58' E 001°52'0 0.0
2016-Aug-21 22:33N 50°58' E 001°52'0 0.0
2016-Aug-21 21:34N 50°58' E 001°52'0 0.0
2016-Aug-21 20:33N 50°58' E 001°52'0 0.0
2016-Aug-21 19:34N 50°58' E 001°52'1212.1
2016-Aug-21 18:33N 51°02' E 001°33'1010.1
2016-Aug-21 17:33N 51°07' E 001°20'0 0.0
2016-Aug-21 16:33N 51°07' E 001°20'7 7.0
2016-Aug-21 15:34N 51°05' E 001°31'1514.6
2016-Aug-21 14:34N 50°58' E 001°51'0 0.0
2016-Aug-21 13:33N 50°58' E 001°51'1616.0
2016-Aug-21 12:34N 51°03' E 001°27'6 6.0
2016-Aug-21 11:33N 51°07' E 001°20'2 1.8
2016-Aug-21 10:33N 51°07' E 001°23'1817.9
2016-Aug-21 09:34N 50°58' E 001°48'2 2.1
2016-Aug-21 08:33N 50°58' E 001°51'0 0.0
2016-Aug-21 07:33N 50°58' E 001°51'0 0.0
2016-Aug-21 06:33N 50°58' E 001°51'0 0.0
2016-Aug-21 05:33N 50°58' E 001°51'0 0.0
2016-Aug-21 04:33N 50°58' E 001°51'0 0.0
2016-Aug-21 03:33N 50°58' E 001°51'0 0.0
2016-Aug-21 02:33N 50°58' E 001°51'0 0.0
2016-Aug-21 01:34N 50°58' E 001°51'0 0.0
2016-Aug-21 00:33N 50°58' E 001°51'6 6.1
2016-Aug-20 23:33N 50°59' E 001°41'3 3.2
2016-Aug-20 22:33N 50°58' E 001°46'3 3.0
2016-Aug-20 21:34N 50°58' E 001°51'1111.2
2016-Aug-20 20:33N 51°01' E 001°34'1110.8
2016-Aug-20 19:33N 51°07' E 001°20'2 2.1
2016-Aug-20 18:33N 51°08' E 001°23'4 3.7
2016-Aug-20 17:34N 51°10' E 001°27'10 9.7
2016-Aug-20 16:33N 51°03' E 001°37'1010.3
2016-Aug-20 15:33N 50°58' E 001°51'3 3.4
2016-Aug-20 14:34N 50°58' E 001°46'1616.5
2016-Aug-20 13:34N 51°06' E 001°23'2 2.2
2016-Aug-20 12:34N 51°07' E 001°20'3 2.9
2016-Aug-20 11:34N 51°07' E 001°25'1414.0
2016-Aug-20 10:34N 50°59' E 001°43'5 5.2
2016-Aug-20 09:33N 50°58' E 001°51'1010.4
2016-Aug-20 08:33N 50°59' E 001°35'1212.2
2016-Aug-20 07:34N 51°07' E 001°20'0 0.2
2016-Aug-20 06:34N 51°07' E 001°20'1110.6
2016-Aug-20 05:33N 51°06' E 001°37'1212.1
2016-Aug-20 04:33N 50°58' E 001°52'0 0.0
2016-Aug-20 03:34N 50°58' E 001°52'0 0.0
2016-Aug-20 02:34N 50°58' E 001°52'0 0.0
2016-Aug-20 01:33N 50°58' E 001°52'0 0.0
2016-Aug-20 00:33N 50°58' E 001°52'0 0.1
2016-Aug-19 23:33N 50°58' E 001°52'0 0.0
2016-Aug-19 22:33N 50°58' E 001°52'  
Track history (hours):
 
Tides and Currents Weather Stations Pressure Air Temp Water Temp Dewpoint Dewpoint Depression Visibility Wind Speed Wind Dir Waves Ship Positions

European Seaway

Operator: P & O Ferries

Last reported at 2016-Aug-29 22:33 UTC. Time now 2016-Aug-29 23:29 UTC.
Position N 50°58' E 001°52'.

Length 179 m; draft 6.1 m.

Type: Passenger vessel. MMSI: 232001040.

Date/timePositionNaut miles runAvg speedWind from/ knotsBaromVisibWave heightAir tempDewpointWater temp
2016-Aug-29 22:33N 50°58' E 001°52'0 0.0
2016-Aug-29 21:33N 50°58' E 001°52'0 0.0
2016-Aug-29 20:33N 50°58' E 001°52'0 0.0
2016-Aug-29 19:33N 50°58' E 001°52'1 0.9
2016-Aug-29 18:34N 50°58' E 001°50'1514.7
2016-Aug-29 17:34N 51°04' E 001°28'6 6.5
2016-Aug-29 16:33N 51°07' E 001°20'4 4.5
2016-Aug-29 15:34N 51°05' E 001°26'1616.1
2016-Aug-29 14:34N 50°58' E 001°49'1 1.1
2016-Aug-29 13:33N 50°58' E 001°51'1313.4
2016-Aug-29 12:33N 51°02' E 001°30'9 8.6
2016-Aug-29 11:33N 51°07' E 001°20'5 4.8
2016-Aug-29 10:33N 51°07' E 001°28'1616.3
2016-Aug-29 09:34N 50°58' E 001°50'1 1.1
2016-Aug-29 08:31N 50°58' E 001°52'0 0.0
2016-Aug-29 07:25N 50°58' E 001°52'0 0.0
2016-Aug-29 06:19N 50°58' E 001°52'0 0.0
2016-Aug-29 05:31N 50°58' E 001°52'0 0.0
2016-Aug-29 04:33N 50°58' E 001°52'0 0.0
2016-Aug-29 03:33N 50°58' E 001°52'0 0.0
2016-Aug-29 02:33N 50°58' E 001°52'0 0.0
2016-Aug-29 01:33N 50°58' E 001°52'0 0.0
2016-Aug-29 00:33N 50°58' E 001°52'0 0.0
2016-Aug-28 23:33N 50°58' E 001°52'0 0.0
2016-Aug-28 22:33N 50°58' E 001°52'0 0.0
2016-Aug-28 21:33N 50°58' E 001°52'0 0.0
2016-Aug-28 20:33N 50°58' E 001°52'0 0.0
2016-Aug-28 19:33N 50°58' E 001°52'1514.5
2016-Aug-28 18:33N 51°02' E 001°30'8 7.9
2016-Aug-28 17:33N 51°07' E 001°20'0 0.1
2016-Aug-28 16:33N 51°07' E 001°20'1010.2
2016-Aug-28 15:33N 51°03' E 001°35'1211.5
2016-Aug-28 14:32N 50°58' E 001°52'0 0.2
2016-Aug-28 13:29N 50°58' E 001°52'0 0.0
2016-Aug-28 12:32N 50°58' E 001°52'0 0.0
2016-Aug-28 11:33N 50°58' E 001°52'0 0.0
2016-Aug-28 10:33N 50°58' E 001°52'0 0.0
2016-Aug-28 09:33N 50°58' E 001°52'0 0.0
2016-Aug-28 08:33N 50°58' E 001°52'0 0.0
2016-Aug-28 07:33N 50°58' E 001°52'0 0.0
2016-Aug-28 06:33N 50°58' E 001°52'0 0.0
2016-Aug-28 05:33N 50°58' E 001°52'0 0.0
2016-Aug-28 04:33N 50°58' E 001°52'0 0.0
2016-Aug-28 03:33N 50°58' E 001°52'0 0.0
2016-Aug-28 02:33N 50°58' E 001°52'0 0.0
2016-Aug-28 01:34N 50°58' E 001°52'0 0.0
2016-Aug-28 00:33N 50°58' E 001°52'0 0.0
2016-Aug-27 23:34N 50°58' E 001°52'0 0.0
2016-Aug-27 22:33N 50°58' E 001°52'0 0.0
2016-Aug-27 21:33N 50°58' E 001°52'0 0.0
2016-Aug-27 20:34N 50°58' E 001°52'0 0.0
2016-Aug-27 19:33N 50°58' E 001°52'0 0.0
2016-Aug-27 18:33N 50°58' E 001°52'1010.2
2016-Aug-27 17:33N 51°00' E 001°36'1212.3
2016-Aug-27 16:33N 51°07' E 001°20'9 9.1
2016-Aug-27 15:33N 51°03' E 001°33'1212.5
2016-Aug-27 14:34N 50°58' E 001°51'1 1.3
2016-Aug-27 13:33N 50°58' E 001°49'1616.5
2016-Aug-27 12:33N 51°05' E 001°25'4 3.8
2016-Aug-27 11:33N 51°07' E 001°20'1 1.2
2016-Aug-27 10:34N 51°07' E 001°22'1817.9
2016-Aug-27 09:33N 50°58' E 001°46'3 2.8
2016-Aug-27 08:33N 50°58' E 001°51'1313.4
2016-Aug-27 07:33N 51°03' E 001°31'8 7.3
2016-Aug-27 06:25N 51°07' E 001°20'2010.6
2016-Aug-27 04:33N 50°58' E 001°48'3 2.5
2016-Aug-27 03:33N 50°58' E 001°52'0 0.0
2016-Aug-27 02:33N 50°58' E 001°52'0 0.0
2016-Aug-27 01:33N 50°58' E 001°52'0 0.0
2016-Aug-27 00:33N 50°58' E 001°52'0 0.0
2016-Aug-26 23:33N 50°58' E 001°52'0 0.0
2016-Aug-26 22:33N 50°58' E 001°52'0 0.0
2016-Aug-26 21:33N 50°58' E 001°52'0 0.0
2016-Aug-26 20:33N 50°58' E 001°52'0 0.0
2016-Aug-26 19:33N 50°58' E 001°52'1 1.4
2016-Aug-26 18:33N 50°58' E 001°50'1717.0
2016-Aug-26 17:33N 51°05' E 001°25'4 3.8
2016-Aug-26 16:33N 51°07' E 001°20'9 8.6
2016-Aug-26 15:34N 51°05' E 001°33'1313.2
2016-Aug-26 14:33N 50°58' E 001°51'1 0.8
2016-Aug-26 13:33N 50°58' E 001°50'1515.3
2016-Aug-26 12:33N 51°04' E 001°27'6 5.7
2016-Aug-26 11:32N 51°07' E 001°20'3 2.7
2016-Aug-26 10:34N 51°07' E 001°24'1716.6
2016-Aug-26 09:33N 50°58' E 001°47'3 2.7
2016-Aug-26 08:33N 50°58' E 001°51'1312.6
2016-Aug-26 07:34N 51°02' E 001°32'9 9.3
2016-Aug-26 06:33N 51°07' E 001°20'19 9.5
2016-Aug-26 04:34N 50°58' E 001°46'4 3.5
2016-Aug-26 03:33N 50°58' E 001°52'0 0.0
2016-Aug-26 02:33N 50°58' E 001°52'0 0.0
2016-Aug-26 01:33N 50°58' E 001°52'0 0.0
2016-Aug-26 00:33N 50°58' E 001°52'0 0.0
2016-Aug-25 23:34N 50°58' E 001°52'0 0.0
2016-Aug-25 22:33N 50°58' E 001°52'0 0.0
2016-Aug-25 21:33N 50°58' E 001°52'0 0.0
2016-Aug-25 20:33N 50°58' E 001°52'0 0.0
2016-Aug-25 19:33N 50°58' E 001°52'0 0.0
2016-Aug-25 18:34N 50°58' E 001°52'1312.9
2016-Aug-25 17:34N 51°03' E 001°33'9 9.1
2016-Aug-25 16:33N 51°07' E 001°20'6 6.1
2016-Aug-25 15:33N 51°06' E 001°29'1515.4
2016-Aug-25 14:34N 50°58' E 001°51'0 0.2
2016-Aug-25 13:33N 50°58' E 001°51'1313.1
2016-Aug-25 12:34N 51°02' E 001°31'9 8.8
2016-Aug-25 11:33N 51°07' E 001°20'2 2.1
2016-Aug-25 10:33N 51°07' E 001°23'1717.3
2016-Aug-25 09:33N 50°58' E 001°47'2 2.4
2016-Aug-25 08:33N 50°58' E 001°51'1414.3
2016-Aug-25 07:34N 51°02' E 001°29'8 7.9
2016-Aug-25 06:33N 51°07' E 001°20'19 9.5
2016-Aug-25 04:33N 50°58' E 001°47'3 3.2
2016-Aug-25 03:33N 50°58' E 001°52'0 0.0
2016-Aug-25 02:34N 50°58' E 001°52'0 0.0
2016-Aug-25 01:33N 50°58' E 001°52'0 0.0
2016-Aug-25 00:33N 50°58' E 001°52'0 0.0
2016-Aug-24 23:33N 50°58' E 001°52'0 0.0
2016-Aug-24 22:33N 50°58' E 001°52'0 0.0
2016-Aug-24 21:33N 50°58' E 001°52'0 0.0
2016-Aug-24 20:33N 50°58' E 001°52'0 0.0
2016-Aug-24 19:33N 50°58' E 001°52'2 1.9
2016-Aug-24 18:33N 50°58' E 001°49'1615.8
2016-Aug-24 17:33N 51°05' E 001°26'4 4.3
2016-Aug-24 16:31N 51°07' E 001°20'8 8.6
2016-Aug-24 15:34N 51°05' E 001°33'1413.5
2016-Aug-24 14:33N 50°58' E 001°51'0 0.0
2016-Aug-24 13:33N 50°58' E 001°51'1515.5
2016-Aug-24 12:34N 51°04' E 001°28'6 6.3
2016-Aug-24 11:33N 51°07' E 001°20'0 0.1
2016-Aug-24 10:33N 51°07' E 001°20'1717.5
2016-Aug-24 09:34N 50°59' E 001°44'4 4.3
2016-Aug-24 08:33N 50°58' E 001°51'1110.9
2016-Aug-24 07:33N 51°00' E 001°34'1111.3
2016-Aug-24 06:33N 51°07' E 001°20'20 9.8
2016-Aug-24 04:33N 50°58' E 001°48'3 2.6
2016-Aug-24 03:34N 50°58' E 001°52'0 0.0
2016-Aug-24 02:33N 50°58' E 001°52'0 0.0
2016-Aug-24 01:33N 50°58' E 001°52'0 0.0
2016-Aug-24 00:33N 50°58' E 001°52'0 0.0
2016-Aug-23 23:33N 50°58' E 001°52'0 0.0
2016-Aug-23 22:34N 50°58' E 001°52'0 0.0
2016-Aug-23 21:33N 50°58' E 001°52'0 0.0
2016-Aug-23 20:34N 50°58' E 001°52'0 0.0
2016-Aug-23 19:33N 50°58' E 001°52'0 0.0
2016-Aug-23 18:33N 50°58' E 001°52'1313.3
2016-Aug-23 17:33N 51°02' E 001°32'9 8.8
2016-Aug-23 16:33N 51°07' E 001°20'6 6.1
2016-Aug-23 15:33N 51°06' E 001°30'1515.5
2016-Aug-23 14:34N 50°58' E 001°51'0 0.2
2016-Aug-23 13:33N 50°58' E 001°51'1010.4
2016-Aug-23 12:33N 51°01' E 001°35'1211.5
2016-Aug-23 11:33N 51°07' E 001°20'1 0.8
2016-Aug-23 10:33N 51°07' E 001°21'1919.2
2016-Aug-23 09:34N 50°58' E 001°48'2 1.9
2016-Aug-23 08:33N 50°58' E 001°51'1110.6
2016-Aug-23 07:34N 51°01' E 001°35'1111.2
2016-Aug-23 06:33N 51°07' E 001°20'4 3.6
2016-Aug-23 05:34N 51°06' E 001°26'1616.4
2016-Aug-23 04:34N 50°58' E 001°48'2 2.1
2016-Aug-23 03:33N 50°58' E 001°52'0 0.0
2016-Aug-23 02:34N 50°58' E 001°52'0 0.0
2016-Aug-23 01:34N 50°58' E 001°52'0 0.0
2016-Aug-23 00:33N 50°58' E 001°52'0 0.0
2016-Aug-22 23:34N 50°58' E 001°52'0 0.0
2016-Aug-22 22:34N 50°58' E 001°52'0 0.0
2016-Aug-22 21:34N 50°58' E 001°52'0 0.0
2016-Aug-22 20:34N 50°58' E 001°52'0 0.0
2016-Aug-22 19:34N 50°58' E 001°52'0 0.0
2016-Aug-22 18:34N 50°58' E 001°52'1413.9
2016-Aug-22 17:33N 51°02' E 001°30'8 8.3
2016-Aug-22 16:33N 51°07' E 001°20'7 7.3
2016-Aug-22 15:33N 51°05' E 001°31'1414.2
2016-Aug-22 14:33N 50°58' E 001°51'0 0.0
2016-Aug-22 13:34N 50°58' E 001°51'1514.8
2016-Aug-22 12:34N 51°03' E 001°29'7 6.9
2016-Aug-22 11:33N 51°07' E 001°20'2 1.7
2016-Aug-22 10:33N 51°07' E 001°23'1818.3
2016-Aug-22 09:34N 50°58' E 001°48'2 2.3
2016-Aug-22 08:34N 50°58' E 001°52'0 0.0
2016-Aug-22 07:34N 50°58' E 001°52'0 0.0
2016-Aug-22 06:34N 50°58' E 001°52'0 0.0
2016-Aug-22 05:34N 50°58' E 001°52'0 0.0
2016-Aug-22 04:34N 50°58' E 001°52'0 0.0
2016-Aug-22 03:34N 50°58' E 001°52'0 0.0
2016-Aug-22 02:34N 50°58' E 001°52'0 0.0
2016-Aug-22 01:33N 50°58' E 001°52'0 0.0
2016-Aug-22 00:34N 50°58' E 001°52'0 0.0
2016-Aug-21 23:34N 50°58' E 001°52'0 0.0
2016-Aug-21 22:33N 50°58' E 001°52'0 0.0
2016-Aug-21 21:34N 50°58' E 001°52'0 0.0
2016-Aug-21 20:33N 50°58' E 001°52'0 0.0
2016-Aug-21 19:34N 50°58' E 001°52'1212.1
2016-Aug-21 18:33N 51°02' E 001°33'1010.1
2016-Aug-21 17:33N 51°07' E 001°20'0 0.0
2016-Aug-21 16:33N 51°07' E 001°20'7 7.0
2016-Aug-21 15:34N 51°05' E 001°31'1514.6
2016-Aug-21 14:34N 50°58' E 001°51'0 0.0
2016-Aug-21 13:33N 50°58' E 001°51'1616.0
2016-Aug-21 12:34N 51°03' E 001°27'6 6.0
2016-Aug-21 11:33N 51°07' E 001°20'2 1.8
2016-Aug-21 10:33N 51°07' E 001°23'1817.9
2016-Aug-21 09:34N 50°58' E 001°48'2 2.1
2016-Aug-21 08:33N 50°58' E 001°51'0 0.0
2016-Aug-21 07:33N 50°58' E 001°51'0 0.0
2016-Aug-21 06:33N 50°58' E 001°51'0 0.0
2016-Aug-21 05:33N 50°58' E 001°51'0 0.0
2016-Aug-21 04:33N 50°58' E 001°51'0 0.0
2016-Aug-21 03:33N 50°58' E 001°51'0 0.0
2016-Aug-21 02:33N 50°58' E 001°51'0 0.0
2016-Aug-21 01:34N 50°58' E 001°51'0 0.0
2016-Aug-21 00:33N 50°58' E 001°51'6 6.1
2016-Aug-20 23:33N 50°59' E 001°41'3 3.2
2016-Aug-20 22:33N 50°58' E 001°46'3 3.0
2016-Aug-20 21:34N 50°58' E 001°51'1111.2
2016-Aug-20 20:33N 51°01' E 001°34'1110.8
2016-Aug-20 19:33N 51°07' E 001°20'2 2.1
2016-Aug-20 18:33N 51°08' E 001°23'4 3.7
2016-Aug-20 17:34N 51°10' E 001°27'10 9.7
2016-Aug-20 16:33N 51°03' E 001°37'1010.3
2016-Aug-20 15:33N 50°58' E 001°51'3 3.4
2016-Aug-20 14:34N 50°58' E 001°46'1616.5
2016-Aug-20 13:34N 51°06' E 001°23'2 2.2
2016-Aug-20 12:34N 51°07' E 001°20'3 2.9
2016-Aug-20 11:34N 51°07' E 001°25'1414.0
2016-Aug-20 10:34N 50°59' E 001°43'5 5.2
2016-Aug-20 09:33N 50°58' E 001°51'1010.4
2016-Aug-20 08:33N 50°59' E 001°35'1212.2
2016-Aug-20 07:34N 51°07' E 001°20'0 0.2
2016-Aug-20 06:34N 51°07' E 001°20'1110.6
2016-Aug-20 05:33N 51°06' E 001°37'1212.1
2016-Aug-20 04:33N 50°58' E 001°52'0 0.0
2016-Aug-20 03:34N 50°58' E 001°52'0 0.0
2016-Aug-20 02:34N 50°58' E 001°52'0 0.0
2016-Aug-20 01:33N 50°58' E 001°52'0 0.0
2016-Aug-20 00:33N 50°58' E 001°52'0 0.1
2016-Aug-19 23:33N 50°58' E 001°52'0 0.0
2016-Aug-19 22:33N 50°58' E 001°52'  

Dump ship's entire track history